Time;durP1;ratioP1;P1;durP2;ratioP2;P2;SDS_P1;SDS_P2;PMS_P1;PMS_P2;Temp;Humidity;BMP_temperature;BMP_pressure;BME280_temperature;BME280_humidity;BME280_pressure;Samples;Min_cycle;Max_cycle;Signal;HPM_P1;HPM_P2
2021/01/12 00:02:19;;;;;;;23.58;14.90;;;-6.10;83.50;;;;;;5013376;28;20042;-80
2021/01/12 00:04:46;;;;;;;32.03;14.80;;;-6.10;83.50;;;;;;5013403;28;20506;-78
2021/01/12 00:07:13;;;;;;;26.30;15.48;;;-6.00;83.70;;;;;;5012446;28;20479;-79
2021/01/12 00:09:39;;;;;;;27.70;15.50;;;-6.00;83.70;;;;;;5012992;28;20457;-79
2021/01/12 00:12:08;;;;;;;30.80;15.77;;;-6.00;83.50;;;;;;5013161;28;20034;-78
2021/01/12 00:14:34;;;;;;;30.05;15.88;;;-5.90;83.50;;;;;;5013402;28;20105;-79
2021/01/12 00:17:03;;;;;;;32.13;17.75;;;-5.90;83.20;;;;;;5013166;28;20022;-78
2021/01/12 00:19:29;;;;;;;34.30;16.40;;;-6.00;83.00;;;;;;5013052;28;20018;-78
2021/01/12 00:21:56;;;;;;;32.60;15.15;;;-6.10;82.90;;;;;;5013390;28;20030;-77
2021/01/12 00:24:21;;;;;;;37.38;18.00;;;-6.10;83.20;;;;;;5013459;28;20391;-79
2021/01/12 00:26:48;;;;;;;34.80;16.38;;;-6.10;83.30;;;;;;5013034;28;20026;-76
2021/01/12 00:29:14;;;;;;;29.90;17.00;;;-6.10;83.40;;;;;;5015220;28;20029;-79
2021/01/12 00:31:41;;;;;;;30.73;17.10;;;-6.20;83.40;;;;;;5016442;28;20283;-78
2021/01/12 00:34:07;;;;;;;34.45;17.17;;;-6.10;83.50;;;;;;5016879;28;20017;-80
2021/01/12 00:36:42;;;;;;;35.05;17.80;;;-6.10;83.50;;;;;;5004448;28;20382;-79
2021/01/12 00:39:09;;;;;;;32.92;17.83;;;-6.20;83.70;;;;;;5003082;28;20041;-79
2021/01/12 00:41:35;;;;;;;33.42;16.63;;;-6.20;83.90;;;;;;5016432;28;20386;-78
2021/01/12 00:44:05;;;;;;;27.58;15.10;;;-6.10;83.90;;;;;;5015663;28;20029;-78
2021/01/12 00:46:32;;;;;;;24.75;12.45;;;-6.10;83.80;;;;;;4996993;28;20061;-79
2021/01/12 00:48:58;;;;;;;32.30;18.10;;;-6.20;83.70;;;;;;5009805;28;20039;-79
2021/01/12 00:51:37;;;;;;;33.30;16.05;;;-6.20;83.80;;;;;;5016414;28;20375;-78
2021/01/12 00:54:10;;;;;;;32.22;15.55;;;-6.20;83.70;;;;;;5016402;28;20518;-78
2021/01/12 00:56:36;;;;;;;35.58;17.67;;;-6.30;83.60;;;;;;5016086;28;20029;-78
2021/01/12 00:59:02;;;;;;;36.40;16.98;;;-6.30;84.00;;;;;;5016358;28;20061;-78
2021/01/12 01:01:29;;;;;;;37.35;18.38;;;-6.40;84.00;;;;;;5015731;28;20077;-77
2021/01/12 01:03:55;;;;;;;37.50;16.60;;;-6.40;83.90;;;;;;5016522;28;20022;-80
2021/01/12 01:06:21;;;;;;;37.58;17.38;;;-6.40;84.10;;;;;;5015267;28;20018;-79
2021/01/12 01:08:48;;;;;;;32.58;16.65;;;-6.40;84.40;;;;;;5016020;28;20065;-79
2021/01/12 01:11:14;;;;;;;27.30;14.65;;;-6.40;84.60;;;;;;5014307;28;20038;-79
2021/01/12 01:13:40;;;;;;;34.33;16.30;;;-6.40;84.60;;;;;;5016035;28;20052;-78
2021/01/12 01:16:06;;;;;;;21.83;12.13;;;-6.40;84.50;;;;;;5015891;28;20022;-78
2021/01/12 01:18:33;;;;;;;32.35;14.98;;;-6.40;84.80;;;;;;5005745;28;20022;-80
2021/01/12 01:20:59;;;;;;;35.50;15.48;;;-6.40;85.10;;;;;;5015706;28;20394;-77
2021/01/12 01:23:24;;;;;;;27.27;14.38;;;-6.50;85.00;;;;;;5016158;28;20029;-79
2021/01/12 01:25:51;;;;;;;39.30;15.80;;;-6.50;85.40;;;;;;5016659;28;20124;-78
2021/01/12 01:28:21;;;;;;;28.90;14.98;;;-6.60;85.80;;;;;;5015958;28;20026;-77
2021/01/12 01:30:48;;;;;;;26.02;14.68;;;-6.60;85.60;;;;;;5016238;28;20554;-80
2021/01/12 01:33:14;;;;;;;28.50;13.70;;;-6.50;85.00;;;;;;5016153;28;20072;-78
2021/01/12 01:35:41;;;;;;;29.98;15.30;;;-6.60;84.60;;;;;;5015493;28;20105;-79
2021/01/12 01:38:07;;;;;;;37.08;18.45;;;-6.60;84.30;;;;;;5015521;28;20026;-78
2021/01/12 01:40:32;;;;;;;31.85;15.23;;;-6.60;84.20;;;;;;5014277;28;20501;-78
2021/01/12 01:42:58;;;;;;;32.72;18.27;;;-6.70;83.90;;;;;;5015291;28;20029;-77
2021/01/12 01:45:24;;;;;;;37.45;17.92;;;-6.70;84.10;;;;;;5017343;28;20022;-77
2021/01/12 01:47:51;;;;;;;27.08;16.05;;;-6.70;84.20;;;;;;5016519;28;20030;-78
2021/01/12 01:50:20;;;;;;;29.65;14.15;;;-6.70;84.30;;;;;;5017443;28;20029;-77
2021/01/12 01:52:56;;;;;;;34.10;16.02;;;-6.70;84.80;;;;;;5022566;28;20096;-78
2021/01/12 01:55:23;;;;;;;33.22;16.63;;;-6.80;85.30;;;;;;5016382;28;20018;-78
2021/01/12 01:57:49;;;;;;;33.58;16.70;;;-6.80;85.60;;;;;;5015321;28;20022;-78
2021/01/12 02:00:18;;;;;;;29.30;14.85;;;-6.70;85.50;;;;;;5015038;28;20033;-79
2021/01/12 02:03:11;;;;;;;31.95;18.35;;;-6.60;85.50;;;;;;5014992;28;20029;-77
2021/01/12 02:05:42;;;;;;;35.80;17.05;;;-6.60;85.20;;;;;;5014029;28;20053;-77
2021/01/12 02:08:17;;;;;;;34.45;17.80;;;-6.50;85.00;;;;;;5014735;28;20014;-78
2021/01/12 02:10:47;;;;;;;29.92;15.32;;;-6.50;84.70;;;;;;5014936;28;20026;-78
2021/01/12 02:13:16;;;;;;;28.33;15.40;;;-6.40;84.30;;;;;;5014648;28;20489;-77
2021/01/12 02:15:44;;;;;;;30.52;16.50;;;-6.40;84.10;;;;;;5014930;28;20053;-77
2021/01/12 02:18:11;;;;;;;39.78;18.02;;;-6.40;83.70;;;;;;5014480;28;20029;-78
2021/01/12 02:20:40;;;;;;;27.98;16.42;;;-6.50;83.60;;;;;;5014782;28;20060;-78
2021/01/12 02:23:09;;;;;;;33.42;15.73;;;-6.40;83.70;;;;;;5014453;28;20386;-77
2021/01/12 02:25:39;;;;;;;31.98;16.23;;;-6.40;83.70;;;;;;5014895;28;20398;-78
2021/01/12 02:28:09;;;;;;;32.17;16.42;;;-6.40;83.70;;;;;;5014710;28;20057;-78
2021/01/12 02:30:37;;;;;;;26.52;17.45;;;-6.30;83.50;;;;;;5014330;28;20203;-78
2021/01/12 02:33:05;;;;;;;27.00;12.07;;;-6.30;83.50;;;;;;5014364;28;20045;-77
2021/01/12 02:35:34;;;;;;;30.15;13.85;;;-6.30;83.90;;;;;;5014225;28;20502;-78
2021/01/12 02:38:02;;;;;;;25.15;16.45;;;-6.30;84.20;;;;;;5014194;28;20029;-77
2021/01/12 02:40:28;;;;;;;31.02;17.60;;;-6.30;84.00;;;;;;5014212;28;20391;-78
2021/01/12 02:42:54;;;;;;;27.88;15.95;;;-6.30;83.90;;;;;;5014283;28;20099;-78
2021/01/12 02:45:20;;;;;;;31.23;16.33;;;-6.30;83.70;;;;;;5014430;28;20080;-77
2021/01/12 02:47:46;;;;;;;34.22;15.73;;;-6.20;83.70;;;;;;5014036;28;20022;-78
2021/01/12 02:50:13;;;;;;;20.83;13.93;;;-6.20;83.40;;;;;;5013878;28;20014;-78
2021/01/12 02:52:39;;;;;;;32.95;15.23;;;-6.20;83.00;;;;;;5013645;28;20038;-79
2021/01/12 02:55:08;;;;;;;20.80;13.00;;;-6.10;83.60;;;;;;5014079;28;20014;-78
2021/01/12 02:57:34;;;;;;;31.20;18.00;;;-6.10;82.70;;;;;;4996331;28;20033;-78
2021/01/12 03:00:00;;;;;;;28.77;15.05;;;-6.10;82.60;;;;;;4996181;28;20352;-78
2021/01/12 03:02:25;;;;;;;31.95;16.25;;;-6.10;82.60;;;;;;5013542;28;20046;-77
2021/01/12 03:04:51;;;;;;;35.65;15.48;;;-6.10;82.70;;;;;;5013956;28;20025;-78
2021/01/12 03:07:17;;;;;;;29.38;15.73;;;-6.10;82.50;;;;;;5013724;28;20467;-78
2021/01/12 03:09:43;;;;;;;30.40;14.38;;;-6.10;82.50;;;;;;5013742;28;20022;-78
2021/01/12 03:12:09;;;;;;;29.65;14.43;;;-6.10;82.40;;;;;;4995907;28;20120;-78
2021/01/12 03:14:35;;;;;;;31.40;14.52;;;-6.10;82.20;;;;;;5013576;28;20029;-79
2021/01/12 03:17:01;;;;;;;37.85;14.63;;;-6.10;82.20;;;;;;5013658;28;20061;-77
2021/01/12 03:19:27;;;;;;;24.20;13.75;;;-6.10;82.10;;;;;;5013299;28;20079;-77
2021/01/12 03:21:53;;;;;;;30.83;14.25;;;-6.20;82.40;;;;;;5016036;28;20022;-77
2021/01/12 03:24:19;;;;;;;27.95;14.25;;;-6.20;82.80;;;;;;5014364;28;20028;-77
2021/01/12 03:26:44;;;;;;;28.23;15.95;;;-6.30;83.50;;;;;;5013665;28;20022;-78
2021/01/12 03:29:10;;;;;;;27.55;14.45;;;-6.30;83.40;;;;;;5013897;28;20030;-76
2021/01/12 03:31:37;;;;;;;33.03;15.25;;;-6.30;83.20;;;;;;5013501;28;20134;-78
2021/01/12 03:34:03;;;;;;;28.48;16.40;;;-6.30;82.80;;;;;;5013474;28;20105;-78
2021/01/12 03:36:29;;;;;;;27.45;15.15;;;-6.40;82.40;;;;;;5013529;28;20030;-79
2021/01/12 03:38:54;;;;;;;27.80;11.98;;;-6.40;82.60;;;;;;5013066;28;20360;-78
2021/01/12 03:41:20;;;;;;;27.92;15.77;;;-6.40;83.10;;;;;;4995575;28;20034;-77
2021/01/12 03:43:46;;;;;;;26.55;14.60;;;-6.40;83.50;;;;;;5013039;28;20033;-77
2021/01/12 03:46:11;;;;;;;29.67;14.25;;;-6.40;83.80;;;;;;4995634;28;20049;-77
2021/01/12 03:48:37;;;;;;;27.85;16.23;;;-6.30;83.80;;;;;;5013755;28;20543;-77
2021/01/12 03:51:03;;;;;;;35.63;17.90;;;-6.30;83.50;;;;;;5017063;28;20528;-77
2021/01/12 03:53:29;;;;;;;29.38;16.85;;;-6.30;83.30;;;;;;5016403;28;20383;-78
2021/01/12 03:55:55;;;;;;;35.25;16.90;;;-6.30;83.30;;;;;;5013465;28;20399;-79
2021/01/12 03:58:21;;;;;;;27.27;15.48;;;-6.20;83.10;;;;;;5013355;28;20026;-76
2021/01/12 04:00:46;;;;;;;31.63;16.38;;;-6.20;83.00;;;;;;5013030;28;20053;-78
2021/01/12 04:03:12;;;;;;;28.38;17.48;;;-6.20;83.20;;;;;;5009932;28;20018;-78
2021/01/12 04:05:39;;;;;;;26.75;14.65;;;-6.10;83.10;;;;;;5017385;28;20348;-79
2021/01/12 04:08:08;;;;;;;33.15;14.77;;;-6.10;82.80;;;;;;5016857;28;20021;-77
2021/01/12 04:10:34;;;;;;;25.83;15.02;;;-6.10;82.80;;;;;;5017000;28;20048;-79
2021/01/12 04:13:01;;;;;;;36.22;16.75;;;-6.10;82.80;;;;;;5016921;28;20041;-78
2021/01/12 04:15:26;;;;;;;32.65;15.70;;;-6.10;82.80;;;;;;5016948;28;20026;-79
2021/01/12 04:17:53;;;;;;;29.92;14.60;;;-6.10;82.70;;;;;;5017114;28;20033;-78
2021/01/12 04:20:19;;;;;;;25.23;14.55;;;-6.10;82.60;;;;;;5016549;28;20029;-79
2021/01/12 04:22:45;;;;;;;32.95;16.30;;;-6.10;82.60;;;;;;5016892;28;20038;-78
2021/01/12 04:25:11;;;;;;;31.10;15.25;;;-6.00;82.50;;;;;;5016496;28;20021;-78
2021/01/12 04:27:37;;;;;;;27.65;15.48;;;-6.00;82.30;;;;;;5016921;28;20383;-80
2021/01/12 04:30:04;;;;;;;26.60;13.93;;;-6.00;82.60;;;;;;5016570;28;20030;-78
2021/01/12 04:32:30;;;;;;;26.17;14.85;;;-6.00;83.00;;;;;;5016782;28;20042;-79
2021/01/12 04:34:56;;;;;;;27.63;13.85;;;-6.00;83.10;;;;;;5016280;28;20029;-79
2021/01/12 04:37:22;;;;;;;32.88;17.27;;;-6.00;83.00;;;;;;5016425;28;20077;-79
2021/01/12 04:39:47;;;;;;;38.92;17.52;;;-5.90;83.00;;;;;;5016865;28;20045;-79
2021/01/12 04:42:13;;;;;;;25.40;15.15;;;-5.90;82.70;;;;;;5016242;28;20022;-78
2021/01/12 04:44:39;;;;;;;31.08;16.40;;;-5.80;82.50;;;;;;5016326;28;20026;-78
2021/01/12 04:47:06;;;;;;;33.92;14.90;;;-5.80;82.50;;;;;;5016318;28;20475;-78
2021/01/12 04:49:33;;;;;;;32.67;15.60;;;-5.80;82.60;;;;;;5017297;28;20022;-78
2021/01/12 04:52:01;;;;;;;23.40;12.23;;;-5.80;83.10;;;;;;4998360;28;20046;-79
2021/01/12 04:54:34;;;;;;;30.42;16.83;;;-5.90;83.30;;;;;;5016112;28;20407;-79
2021/01/12 04:57:00;;;;;;;29.45;14.77;;;-5.90;82.20;;;;;;5016341;28;20044;-78
2021/01/12 04:59:34;;;;;;;33.58;15.35;;;-6.00;82.10;;;;;;5016032;28;20032;-79
2021/01/12 05:02:00;;;;;;;31.15;14.88;;;-6.10;82.00;;;;;;5016158;28;20136;-79
2021/01/12 05:04:27;;;;;;;27.50;15.75;;;-6.10;82.20;;;;;;5015647;28;20022;-79
2021/01/12 05:06:54;;;;;;;28.67;15.57;;;-6.20;82.80;;;;;;5016396;28;20030;-78
2021/01/12 05:09:21;;;;;;;28.08;15.80;;;-6.10;82.30;;;;;;5015994;28;20076;-79
2021/01/12 05:11:47;;;;;;;36.17;17.67;;;-6.10;82.30;;;;;;5015581;28;20121;-80
2021/01/12 05:14:17;;;;;;;31.40;15.97;;;-6.10;82.00;;;;;;5015554;28;20097;-78
2021/01/12 05:16:50;;;;;;;30.42;16.67;;;-6.10;81.90;;;;;;4998549;28;20262;-79
2021/01/12 05:19:33;;;;;;;34.88;18.77;;;-6.10;81.60;;;;;;5013525;28;20021;-77
2021/01/12 05:22:03;;;;;;;36.47;17.95;;;-6.10;81.50;;;;;;5018116;28;20033;-78
2021/01/12 05:24:31;;;;;;;29.63;15.70;;;-6.10;81.60;;;;;;5015632;28;20021;-80
2021/01/12 05:27:06;;;;;;;;;;;-6.10;81.70;;;;;;5015739;28;20394;-79
2021/01/12 05:29:37;;;;;;;33.20;15.93;;;-6.10;82.10;;;;;;4997563;28;19905;-79
2021/01/12 05:32:05;;;;;;;31.25;16.30;;;-6.20;81.20;;;;;;5015183;28;20026;-79
2021/01/12 05:34:35;;;;;;;26.35;14.60;;;-6.30;81.10;;;;;;5015650;28;20021;-79
2021/01/12 05:37:05;;;;;;;34.80;17.60;;;-6.40;80.70;;;;;;5015436;28;20075;-79
2021/01/12 05:39:41;;;;;;;29.60;16.45;;;-6.60;80.70;;;;;;5015739;28;20033;-78
2021/01/12 05:42:10;;;;;;;30.33;17.88;;;-6.70;81.10;;;;;;5016886;28;20037;-78
2021/01/12 05:44:37;;;;;;;34.08;18.70;;;-6.80;81.30;;;;;;5015433;28;20471;-79
2021/01/12 05:47:04;;;;;;;31.42;19.65;;;-6.80;81.50;;;;;;5015461;28;20026;-78
2021/01/12 05:49:30;;;;;;;30.77;17.02;;;-6.90;81.70;;;;;;5016283;28;20034;-78
2021/01/12 05:51:57;;;;;;;26.03;14.20;;;-7.00;81.80;;;;;;5019056;28;20064;-80
2021/01/12 05:54:38;;;;;;;42.17;17.67;;;-7.00;82.30;;;;;;5003674;28;20021;-80
2021/01/12 05:57:05;;;;;;;34.60;17.73;;;-7.10;82.60;;;;;;5015248;28;20075;-78
2021/01/12 05:59:36;;;;;;;32.42;17.25;;;-7.00;82.80;;;;;;5014880;28;20053;-80
2021/01/12 06:02:16;;;;;;;31.45;17.90;;;-7.00;83.10;;;;;;5014620;28;20054;-78
2021/01/12 06:04:45;;;;;;;35.95;17.20;;;-6.90;83.20;;;;;;5014576;28;20113;-79
2021/01/12 06:07:11;;;;;;;37.08;17.48;;;-6.90;83.30;;;;;;5013228;28;20022;-78
2021/01/12 06:09:37;;;;;;;38.80;17.70;;;-6.80;82.80;;;;;;5014688;28;20022;-78
2021/01/12 06:12:04;;;;;;;41.00;19.42;;;-6.80;82.80;;;;;;5015276;28;20398;-78
2021/01/12 06:14:30;;;;;;;40.63;20.25;;;-6.70;83.00;;;;;;5014755;28;20021;-79
2021/01/12 06:16:58;;;;;;;34.63;17.38;;;-6.70;83.50;;;;;;5004680;28;20132;-79
2021/01/12 06:19:29;;;;;;;36.88;19.00;;;-6.70;83.70;;;;;;5014536;28;20014;-79
2021/01/12 06:21:54;;;;;;;34.50;17.88;;;-6.60;83.60;;;;;;5014334;28;20018;-80
2021/01/12 06:24:38;;;;;;;37.33;18.33;;;-6.50;83.70;;;;;;5014816;28;20382;-78
2021/01/12 06:27:11;;;;;;;36.53;17.52;;;-6.50;83.40;;;;;;5014022;28;20033;-79
2021/01/12 06:29:39;;;;;;;37.20;20.65;;;-6.40;84.10;;;;;;5014739;28;20025;-80
2021/01/12 06:32:05;;;;;;;33.53;18.02;;;-6.50;84.20;;;;;;5014256;28;20026;-79
2021/01/12 06:34:32;;;;;;;52.97;23.45;;;-6.40;84.00;;;;;;5014620;28;20054;-80
2021/01/12 06:36:59;;;;;;;33.00;19.25;;;-6.40;83.50;;;;;;5013974;28;20375;-80
2021/01/12 06:39:28;;;;;;;37.50;19.60;;;-6.30;83.60;;;;;;5012838;28;20025;-79
2021/01/12 06:41:54;;;;;;;35.60;18.90;;;-6.30;83.90;;;;;;5013920;28;20029;-79
2021/01/12 06:44:25;;;;;;;35.30;20.85;;;-6.30;84.00;;;;;;5014280;28;20021;-79
2021/01/12 06:46:53;;;;;;;44.47;21.55;;;-6.30;83.80;;;;;;5013777;28;20081;-80
2021/01/12 06:49:24;;;;;;;39.33;18.23;;;-6.30;83.10;;;;;;5013798;28;20072;-81
2021/01/12 06:52:01;;;;;;;38.08;19.88;;;-6.30;83.10;;;;;;5016302;28;20034;-80
2021/01/12 06:54:48;;;;;;;39.80;21.25;;;-6.30;83.50;;;;;;5013996;28;20022;-79
2021/01/12 06:57:23;;;;;;;;;;;-6.30;83.30;;;;;;5014129;28;20053;-78
2021/01/12 06:59:52;;;;;;;36.30;19.35;;;-6.30;83.50;;;;;;5014477;28;19959;-78
2021/01/12 07:02:28;;;;;;;35.42;20.65;;;-6.30;83.50;;;;;;4995849;28;20414;-80
2021/01/12 07:05:14;;;;;;;41.47;20.58;;;-6.20;83.90;;;;;;5013726;28;20093;-80
2021/01/12 07:07:47;;;;;;;33.87;18.47;;;-6.20;83.30;;;;;;5013683;28;20032;-79
2021/01/12 07:10:19;;;;;;;40.33;22.42;;;-6.10;83.30;;;;;;4998661;28;20022;-79
2021/01/12 07:12:46;;;;;;;38.88;18.75;;;-6.10;82.90;;;;;;5013690;28;20118;-80
2021/01/12 07:15:20;;;;;;;41.05;20.83;;;-6.10;83.00;;;;;;5013500;28;20042;-78
2021/01/12 07:17:54;;;;;;;43.70;20.38;;;-6.00;83.00;;;;;;4997023;28;20044;-80
2021/01/12 07:20:27;;;;;;;33.50;17.38;;;-5.90;83.20;;;;;;5014091;28;20053;-79
2021/01/12 07:23:02;;;;;;;47.90;24.08;;;-6.00;82.10;;;;;;5013767;28;20416;-80
2021/01/12 07:25:30;;;;;;;47.25;23.70;;;-6.20;81.00;;;;;;5013380;28;20017;-79
2021/01/12 07:28:07;;;;;;;51.47;25.75;;;-6.30;81.70;;;;;;5013643;28;20029;-80
2021/01/12 07:30:41;;;;;;;42.88;23.95;;;-6.40;81.90;;;;;;5013093;28;20018;-80
2021/01/12 07:33:08;;;;;;;48.35;23.05;;;-6.30;82.50;;;;;;5014939;28;20042;-78
2021/01/12 07:35:36;;;;;;;47.80;24.65;;;-6.30;83.00;;;;;;5020424;28;20014;-82
2021/01/12 07:38:02;;;;;;;43.58;22.70;;;-6.20;83.00;;;;;;5013971;28;20069;-79
2021/01/12 07:40:29;;;;;;;48.90;23.50;;;-6.10;82.30;;;;;;5016688;28;20026;-79
2021/01/12 07:43:00;;;;;;;50.93;26.87;;;-6.10;82.50;;;;;;5013108;28;20396;-81
2021/01/12 07:45:28;;;;;;;46.03;25.00;;;-6.10;82.50;;;;;;5013454;28;20298;-79
2021/01/12 07:47:56;;;;;;;50.63;24.52;;;-6.00;82.60;;;;;;5013660;28;20029;-80
2021/01/12 07:50:24;;;;;;;48.33;22.10;;;-6.00;82.40;;;;;;5005589;28;20018;-79
2021/01/12 07:52:50;;;;;;;44.15;24.75;;;-5.90;82.40;;;;;;5025804;28;20052;-79
2021/01/12 07:55:16;;;;;;;44.80;27.20;;;-6.00;80.50;;;;;;5013157;28;20103;-81
2021/01/12 07:57:42;;;;;;;47.92;26.38;;;-6.10;80.30;;;;;;4991776;28;20030;-81
2021/01/12 08:00:11;;;;;;;48.85;24.73;;;-6.20;80.90;;;;;;5013694;28;20096;-79
2021/01/12 08:02:39;;;;;;;51.15;28.48;;;-6.20;82.10;;;;;;5000138;28;20026;-81
2021/01/12 08:05:07;;;;;;;46.28;26.00;;;-6.20;82.70;;;;;;5012768;28;20497;-80
2021/01/12 08:07:33;;;;;;;49.22;24.88;;;-6.20;82.80;;;;;;5012904;28;20083;-80
2021/01/12 08:09:59;;;;;;;52.22;26.13;;;-6.10;82.90;;;;;;5013143;28;20057;-80
2021/01/12 08:12:26;;;;;;;58.50;29.50;;;-6.00;83.10;;;;;;5013270;28;20029;-81
2021/01/12 08:14:54;;;;;;;52.08;28.60;;;-6.00;82.90;;;;;;4995255;28;20022;-80
2021/01/12 08:17:28;;;;;;;;;;;-5.90;82.50;;;;;;5012058;28;20060;-80
2021/01/12 08:19:55;;;;;;;51.47;25.95;;;-5.90;82.50;;;;;;5012925;28;19996;-79
2021/01/12 08:22:22;;;;;;;44.75;23.77;;;-5.90;82.50;;;;;;5012406;28;20025;-80
2021/01/12 08:24:48;;;;;;;47.67;24.27;;;-5.90;83.00;;;;;;5012371;28;20030;-80
2021/01/12 08:27:21;;;;;;;45.45;24.42;;;-5.90;83.20;;;;;;5012715;28;20018;-80
2021/01/12 08:29:47;;;;;;;46.30;25.83;;;-5.90;83.40;;;;;;5013298;28;20490;-77
2021/01/12 08:32:19;;;;;;;51.13;25.52;;;-5.80;82.80;;;;;;5014867;28;20049;-79
2021/01/12 08:35:01;;;;;;;48.67;24.45;;;-5.80;82.50;;;;;;5013542;28;20025;-80
2021/01/12 08:37:27;;;;;;;48.22;23.92;;;-5.80;82.50;;;;;;5013128;28;20021;-80
2021/01/12 08:40:01;;;;;;;56.65;26.83;;;-5.70;82.40;;;;;;5012413;28;20475;-80
2021/01/12 08:42:31;;;;;;;49.28;25.13;;;-5.70;82.10;;;;;;5012519;28;20056;-80
2021/01/12 08:44:58;;;;;;;45.92;22.60;;;-5.70;82.90;;;;;;5012769;28;20052;-79
2021/01/12 08:47:27;;;;;;;54.88;27.00;;;-5.70;83.00;;;;;;5010979;28;20120;-80
2021/01/12 08:50:02;;;;;;;54.88;28.58;;;-5.70;82.80;;;;;;5013397;28;20025;-81
2021/01/12 08:52:29;;;;;;;50.95;25.77;;;-5.70;82.60;;;;;;5015363;28;20038;-80
2021/01/12 08:55:01;;;;;;;55.08;29.67;;;-5.60;82.50;;;;;;5015985;28;20482;-79
2021/01/12 08:57:27;;;;;;;54.30;26.77;;;-5.50;82.20;;;;;;5016309;28;20034;-81
2021/01/12 08:59:53;;;;;;;52.70;27.17;;;-5.40;81.90;;;;;;5016050;28;20559;-81
2021/01/12 09:02:20;;;;;;;58.38;30.30;;;-5.50;82.10;;;;;;5015954;28;20065;-81
2021/01/12 09:04:57;;;;;;;54.70;29.75;;;-5.50;82.50;;;;;;5015685;28;20025;-80
2021/01/12 09:07:23;;;;;;;54.90;29.42;;;-5.40;82.20;;;;;;5015598;28;20025;-80
2021/01/12 09:09:54;;;;;;;62.65;31.55;;;-5.40;82.10;;;;;;5015512;28;20029;-81
2021/01/12 09:12:20;;;;;;;68.93;34.08;;;-5.40;82.10;;;;;;5015860;28;20029;-79
2021/01/12 09:14:48;;;;;;;57.70;33.10;;;-5.40;82.20;;;;;;5016435;28;20487;-79
2021/01/12 09:17:18;;;;;;;;;;;-5.40;82.10;;;;;;5016153;28;20080;-80
2021/01/12 09:19:49;;;;;;;62.13;33.83;;;-5.40;82.30;;;;;;5015489;28;19905;-80
2021/01/12 09:22:18;;;;;;;58.47;34.22;;;-5.40;82.50;;;;;;5015794;28;20406;-80
2021/01/12 09:24:54;;;;;;;69.57;35.05;;;-5.40;82.40;;;;;;4997770;28;20052;-80
2021/01/12 09:27:23;;;;;;;63.08;32.22;;;-5.40;82.00;;;;;;5001744;28;20018;-80
2021/01/12 09:29:50;;;;;;;66.82;34.40;;;-5.40;82.30;;;;;;5015855;28;20061;-80
2021/01/12 09:32:34;;;;;;;68.18;36.72;;;-5.40;82.30;;;;;;5015063;28;20026;-80
2021/01/12 09:35:02;;;;;;;56.53;31.10;;;-5.30;82.50;;;;;;5016148;28;20059;-80
2021/01/12 09:37:28;;;;;;;60.65;29.27;;;-5.30;82.60;;;;;;5015176;28;20121;-80
2021/01/12 09:39:56;;;;;;;56.38;30.73;;;-5.40;83.20;;;;;;5015542;28;20049;-81
2021/01/12 09:42:26;;;;;;;62.60;34.80;;;-5.40;83.50;;;;;;5014887;28;20073;-81
2021/01/12 09:44:53;;;;;;;75.35;34.83;;;-5.40;83.30;;;;;;4997460;28;20030;-81
2021/01/12 09:47:20;;;;;;;64.40;32.45;;;-5.40;82.80;;;;;;4997899;28;20375;-79
2021/01/12 09:49:46;;;;;;;61.78;32.00;;;-5.40;82.90;;;;;;5015337;28;20034;-80
2021/01/12 09:52:13;;;;;;;63.08;31.30;;;-5.40;82.50;;;;;;5000627;28;20041;-79
2021/01/12 09:54:45;;;;;;;59.08;28.10;;;-5.40;82.50;;;;;;5021122;28;20018;-80
2021/01/12 09:57:11;;;;;;;61.13;33.35;;;-5.40;82.40;;;;;;5016259;28;20068;-79
2021/01/12 09:59:37;;;;;;;47.03;27.33;;;-5.40;82.50;;;;;;5015059;28;20100;-81
2021/01/12 10:02:03;;;;;;;59.05;27.42;;;-5.40;82.60;;;;;;5014683;28;20092;-80
2021/01/12 10:04:28;;;;;;;59.45;29.35;;;-5.40;83.00;;;;;;5015567;28;20084;-80
2021/01/12 10:06:56;;;;;;;45.70;27.40;;;-5.50;83.20;;;;;;5017310;28;20018;-80
2021/01/12 10:09:22;;;;;;;;;;;-5.40;82.80;;;;;;5014958;28;20386;-80
2021/01/12 10:11:47;;;;;;;55.75;27.75;;;-5.40;82.70;;;;;;5014369;28;19913;-79
2021/01/12 10:14:13;;;;;;;47.22;27.58;;;-5.40;83.20;;;;;;5014679;28;20049;-80
2021/01/12 10:16:39;;;;;;;45.15;27.55;;;-5.40;83.70;;;;;;5014353;28;20444;-80
2021/01/12 10:19:05;;;;;;;38.20;24.15;;;-5.60;84.30;;;;;;5015252;28;20044;-80
2021/01/12 10:21:31;;;;;;;52.47;27.23;;;-5.60;85.10;;;;;;5014151;28;20022;-82
2021/01/12 10:23:56;;;;;;;50.10;26.92;;;-5.80;85.30;;;;;;5003267;28;20470;-80
2021/01/12 10:26:22;;;;;;;51.03;27.02;;;-5.80;85.80;;;;;;5023612;28;20060;-81
2021/01/12 10:28:48;;;;;;;49.15;27.17;;;-5.80;86.00;;;;;;5024702;28;20032;-79
2021/01/12 10:31:15;;;;;;;51.53;28.40;;;-5.80;86.00;;;;;;5019497;28;20037;-80
2021/01/12 10:33:41;;;;;;;43.88;22.23;;;-5.80;86.10;;;;;;5014379;28;20026;-81
2021/01/12 10:36:11;;;;;;;44.50;21.43;;;-5.70;86.00;;;;;;5014569;28;20037;-80
2021/01/12 10:38:37;;;;;;;48.75;25.83;;;-5.70;86.20;;;;;;5012752;28;20028;-80
2021/01/12 10:41:02;;;;;;;54.85;26.77;;;-5.60;86.20;;;;;;5014774;28;20030;-81
2021/01/12 10:43:28;;;;;;;45.13;25.02;;;-5.60;85.80;;;;;;5014535;28;20051;-80
2021/01/12 10:45:54;;;;;;;52.65;27.52;;;-5.60;85.20;;;;;;5013572;28;20029;-80
2021/01/12 10:48:20;;;;;;;52.85;28.58;;;-5.50;84.80;;;;;;5014036;28;20026;-80
2021/01/12 10:50:46;;;;;;;47.95;24.90;;;-5.40;84.30;;;;;;5014119;28;20030;-80
2021/01/12 10:53:12;;;;;;;51.55;25.13;;;-5.40;84.40;;;;;;5012975;28;20030;-81
2021/01/12 10:55:38;;;;;;;49.83;25.60;;;-5.40;84.60;;;;;;5014356;28;20474;-82
2021/01/12 10:58:07;;;;;;;62.13;28.63;;;-5.40;84.40;;;;;;4996810;28;20030;-79
2021/01/12 11:00:33;;;;;;;50.33;27.20;;;-5.40;84.20;;;;;;4996190;28;20046;-80
2021/01/12 11:02:59;;;;;;;40.30;26.17;;;-5.30;83.80;;;;;;4996290;28;20626;-80
2021/01/12 11:05:25;;;;;;;40.63;24.30;;;-5.30;83.40;;;;;;5014086;28;20027;-81
2021/01/12 11:07:51;;;;;;;55.90;25.48;;;-5.20;82.80;;;;;;5013870;28;20332;-81
2021/01/12 11:10:17;;;;;;;45.45;25.52;;;-5.20;83.30;;;;;;5014227;28;20129;-79
2021/01/12 11:12:47;;;;;;;41.20;22.83;;;-5.20;83.30;;;;;;5014369;28;20487;-81
2021/01/12 11:15:14;;;;;;;51.25;23.27;;;-5.30;83.70;;;;;;5014086;28;20467;-80
2021/01/12 11:17:40;;;;;;;40.65;24.38;;;-5.30;83.50;;;;;;5013967;28;20108;-80
2021/01/12 11:20:08;;;;;;;43.25;21.40;;;-5.30;83.70;;;;;;5014667;28;20017;-81
2021/01/12 11:22:33;;;;;;;42.53;22.30;;;-5.30;83.70;;;;;;4996056;28;20430;-80
2021/01/12 11:25:05;;;;;;;46.72;23.52;;;-5.30;83.90;;;;;;5013444;28;20030;-80
2021/01/12 11:27:32;;;;;;;38.50;18.25;;;-5.50;84.10;;;;;;5013704;28;20029;-80
2021/01/12 11:29:58;;;;;;;;;;;-5.70;84.80;;;;;;5015745;28;20438;-79
2021/01/12 11:32:25;;;;;;;29.20;14.57;;;-6.10;84.80;;;;;;5013795;28;19960;-81
2021/01/12 11:34:51;;;;;;;52.70;26.40;;;-6.30;85.80;;;;;;4997531;28;20364;-81
2021/01/12 11:37:17;;;;;;;54.53;26.97;;;-6.50;86.90;;;;;;5013551;28;20042;-80
2021/01/12 11:39:44;;;;;;;48.65;24.02;;;-6.60;88.00;;;;;;5013099;28;20117;-81
2021/01/12 11:42:14;;;;;;;39.10;19.15;;;-6.50;88.70;;;;;;5013037;28;20025;-80
2021/01/12 11:44:41;;;;;;;53.38;28.25;;;-6.30;88.70;;;;;;5013108;28;20022;-81
2021/01/12 11:47:08;;;;;;;57.60;29.80;;;-6.20;88.60;;;;;;5013595;28;20034;-80
2021/01/12 11:49:35;;;;;;;47.38;25.80;;;-6.10;88.20;;;;;;5014044;28;20044;-81
2021/01/12 11:52:05;;;;;;;43.03;23.73;;;-6.00;87.80;;;;;;5018828;28;20041;-80
2021/01/12 11:54:31;;;;;;;52.50;26.10;;;-5.90;87.60;;;;;;5022520;28;20026;-80
2021/01/12 11:57:00;;;;;;;38.53;22.70;;;-5.90;87.10;;;;;;5017404;28;20092;-81
2021/01/12 11:59:27;;;;;;;55.28;25.23;;;-5.80;86.70;;;;;;5013379;28;20383;-81
2021/01/12 12:01:59;;;;;;;43.03;23.63;;;-5.70;86.20;;;;;;5012988;28;20046;-79
2021/01/12 12:04:26;;;;;;;45.05;24.23;;;-5.70;86.00;;;;;;5012775;28;20274;-80
2021/01/12 12:07:02;;;;;;;46.97;27.92;;;-5.70;85.90;;;;;;5011759;28;20018;-81
2021/01/12 12:09:30;;;;;;;36.40;19.57;;;-5.70;86.10;;;;;;5012961;28;20109;-79
2021/01/12 12:11:59;;;;;;;48.22;24.45;;;-5.80;86.80;;;;;;5013048;28;20105;-80
2021/01/12 12:14:26;;;;;;;45.35;23.48;;;-5.90;87.10;;;;;;5011572;28;20040;-82
2021/01/12 12:16:54;;;;;;;41.63;21.70;;;-5.90;87.30;;;;;;5011037;28;20025;-82
2021/01/12 12:19:20;;;;;;;46.00;26.77;;;-5.90;87.40;;;;;;5012722;28;20014;-81
2021/01/12 12:21:53;;;;;;;43.97;22.92;;;-6.00;87.60;;;;;;5012521;28;20493;-80
2021/01/12 12:24:22;;;;;;;47.67;25.20;;;-6.00;87.50;;;;;;4997078;28;20030;-79
2021/01/12 12:26:49;;;;;;;49.35;25.75;;;-6.00;87.50;;;;;;5017165;28;20391;-81
2021/01/12 12:29:18;;;;;;;52.05;27.40;;;-5.90;87.30;;;;;;5016947;28;20168;-80
2021/01/12 12:31:43;;;;;;;47.35;25.45;;;-5.90;86.70;;;;;;5015275;28;20124;-81
2021/01/12 12:34:09;;;;;;;44.65;23.65;;;-5.80;86.20;;;;;;5016701;28;20133;-81